Terminal Aerodrome Forecast
Issued by NWS Boston, MA

Home | Current Version | Previous Version | Text Only | Print | Product List | Glossary On
Versions: 1 2 3 4 5 6 7 8 9 10 11 12 13 14 15 16 17 18 19 20 21
000
FTUS41 KBOX 282321
TAFPVD
TAF
KPVD 282321Z 2900/2924 19008KT P6SM SCT200
     FM291000 00000KT P6SM VCSH OVC070
     FM291200 10005KT 2SM +RA VCTS OVC040CB
     FM291500 08006KT 2SM RA VCTS OVC010CB
     FM292100 03009KT 4SM RA BR OVC040
     FM292300 03009KT 5SM BR VCSH OVC050=

USA.gov is the U.S. government's official web portal to all federal, state and local government web resources and services.